sensor_id;sensor_type;location;lat;lon;timestamp;pressure;altitude;pressure_sealevel;temperature;humidity
1652;BME280;823;49.028;8.454;2023-05-11T00:03:15;100265.91;;;16.55;56.02
1652;BME280;823;49.028;8.454;2023-05-11T00:08:15;100270.63;;;16.62;55.63
1652;BME280;823;49.028;8.454;2023-05-11T00:13:16;100265.13;;;16.52;55.54
1652;BME280;823;49.028;8.454;2023-05-11T00:18:16;100259.53;;;16.44;55.71
1652;BME280;823;49.028;8.454;2023-05-11T00:23:16;100263.63;;;16.34;55.99
1652;BME280;823;49.028;8.454;2023-05-11T00:28:17;100259.91;;;16.38;56.40
1652;BME280;823;49.028;8.454;2023-05-11T00:33:17;100254.50;;;16.41;56.53
1652;BME280;823;49.028;8.454;2023-05-11T00:38:18;100259.69;;;16.27;56.63
1652;BME280;823;49.028;8.454;2023-05-11T00:43:18;100257.75;;;16.30;56.08
1652;BME280;823;49.028;8.454;2023-05-11T00:48:19;100259.69;;;16.27;56.37
1652;BME280;823;49.028;8.454;2023-05-11T00:53:19;100262.13;;;16.30;56.35
1652;BME280;823;49.028;8.454;2023-05-11T00:58:20;100256.91;;;16.30;56.30
1652;BME280;823;49.028;8.454;2023-05-11T01:03:21;100248.19;;;16.00;57.20
1652;BME280;823;49.028;8.454;2023-05-11T01:08:25;100246.38;;;16.31;56.46
1652;BME280;823;49.028;8.454;2023-05-11T01:13:33;100244.53;;;16.03;57.31
1652;BME280;823;49.028;8.454;2023-05-11T01:18:44;100246.81;;;16.09;56.76
1652;BME280;823;49.028;8.454;2023-05-11T01:23:59;100243.00;;;16.15;56.70
1652;BME280;823;49.028;8.454;2023-05-11T01:29:18;100239.75;;;16.26;56.64
1652;BME280;823;49.028;8.454;2023-05-11T01:34:29;100234.97;;;16.18;56.87
1652;BME280;823;49.028;8.454;2023-05-11T01:39:35;100240.78;;;16.23;56.88
1652;BME280;823;49.028;8.454;2023-05-11T01:44:38;100245.78;;;16.12;56.83
1652;BME280;823;49.028;8.454;2023-05-11T01:49:43;100237.09;;;16.11;56.58
1652;BME280;823;49.028;8.454;2023-05-11T01:54:45;100242.91;;;16.16;56.99
1652;BME280;823;49.028;8.454;2023-05-11T01:59:49;100244.50;;;16.19;57.16
1652;BME280;823;49.028;8.454;2023-05-11T02:04:50;100244.53;;;16.03;57.41
1652;BME280;823;49.028;8.454;2023-05-11T02:09:52;100253.00;;;15.92;57.64
1652;BME280;823;49.028;8.454;2023-05-11T02:14:52;100247.41;;;15.98;57.39
1652;BME280;823;49.028;8.454;2023-05-11T02:19:54;100248.13;;;15.86;57.53
1652;BME280;823;49.028;8.454;2023-05-11T02:24:56;100255.63;;;16.07;57.19
1652;BME280;823;49.028;8.454;2023-05-11T02:29:56;100249.91;;;15.86;57.54
1652;BME280;823;49.028;8.454;2023-05-11T02:35:03;100254.94;;;15.89;57.52
1652;BME280;823;49.028;8.454;2023-05-11T02:40:09;100247.00;;;16.06;57.34
1652;BME280;823;49.028;8.454;2023-05-11T02:45:14;100256.06;;;15.99;57.39
1652;BME280;823;49.028;8.454;2023-05-11T02:50:18;100262.53;;;16.08;57.37
1652;BME280;823;49.028;8.454;2023-05-11T02:55:20;100260.38;;;16.00;57.44
1652;BME280;823;49.028;8.454;2023-05-11T03:00:21;100252.84;;;16.10;57.58
1652;BME280;823;49.028;8.454;2023-05-11T03:05:21;100264.88;;;16.12;57.35
1652;BME280;823;49.028;8.454;2023-05-11T03:10:24;100257.06;;;16.12;57.23
1652;BME280;823;49.028;8.454;2023-05-11T03:15:27;100248.09;;;16.02;57.86
1652;BME280;823;49.028;8.454;2023-05-11T03:20:27;100246.41;;;16.01;57.74
1652;BME280;823;49.028;8.454;2023-05-11T03:25:30;100252.41;;;15.87;58.12
1652;BME280;823;49.028;8.454;2023-05-11T03:30:31;100254.50;;;15.96;57.71
1652;BME280;823;49.028;8.454;2023-05-11T03:35:33;100249.28;;;15.96;57.82
1652;BME280;823;49.028;8.454;2023-05-11T03:40:36;100249.44;;;15.93;57.68
1652;BME280;823;49.028;8.454;2023-05-11T03:45:37;100246.75;;;15.95;58.02
1652;BME280;823;49.028;8.454;2023-05-11T03:50:41;100242.63;;;15.91;58.18
1652;BME280;823;49.028;8.454;2023-05-11T03:55:42;100235.75;;;15.90;58.19
1652;BME280;823;49.028;8.454;2023-05-11T04:00:42;100244.69;;;15.86;58.41
1652;BME280;823;49.028;8.454;2023-05-11T04:05:43;100248.31;;;15.83;58.08
1652;BME280;823;49.028;8.454;2023-05-11T04:10:43;100245.59;;;15.85;58.00
1652;BME280;823;49.028;8.454;2023-05-11T04:15:44;100243.19;;;15.81;58.34
1652;BME280;823;49.028;8.454;2023-05-11T04:20:44;100245.69;;;15.83;58.00
1652;BME280;823;49.028;8.454;2023-05-11T04:25:44;100250.38;;;15.76;58.57
1652;BME280;823;49.028;8.454;2023-05-11T04:30:45;100249.06;;;15.69;58.66
1652;BME280;823;49.028;8.454;2023-05-11T04:35:45;100247.63;;;15.79;58.04
1652;BME280;823;49.028;8.454;2023-05-11T04:40:47;100247.78;;;15.76;58.26
1652;BME280;823;49.028;8.454;2023-05-11T04:45:50;100246.94;;;15.76;58.28
1652;BME280;823;49.028;8.454;2023-05-11T04:50:53;100243.28;;;15.80;58.02
1652;BME280;823;49.028;8.454;2023-05-11T04:55:53;100249.66;;;15.74;58.33
1652;BME280;823;49.028;8.454;2023-05-11T05:00:53;100255.31;;;15.82;58.30
1652;BME280;823;49.028;8.454;2023-05-11T05:05:54;100250.38;;;15.76;58.30
1652;BME280;823;49.028;8.454;2023-05-11T05:10:54;100246.78;;;15.79;58.08
1652;BME280;823;49.028;8.454;2023-05-11T05:15:54;100255.13;;;15.86;57.77
1652;BME280;823;49.028;8.454;2023-05-11T05:20:55;100256.25;;;15.96;57.68
1652;BME280;823;49.028;8.454;2023-05-11T05:25:55;100258.56;;;15.86;57.71
1652;BME280;823;49.028;8.454;2023-05-11T05:30:55;100271.47;;;16.04;57.68
1652;BME280;823;49.028;8.454;2023-05-11T05:35:57;100275.00;;;16.03;57.61
1652;BME280;823;49.028;8.454;2023-05-11T05:40:57;100278.81;;;15.97;57.54
1652;BME280;823;49.028;8.454;2023-05-11T05:45:58;100274.72;;;16.07;57.38
1652;BME280;823;49.028;8.454;2023-05-11T05:50:58;100279.53;;;16.15;57.16
1652;BME280;823;49.028;8.454;2023-05-11T05:55:59;100282.16;;;15.99;56.74
1652;BME280;823;49.028;8.454;2023-05-11T06:00:59;100276.88;;;16.00;56.34
1652;BME280;823;49.028;8.454;2023-05-11T06:06:00;100271.78;;;16.13;56.33
1652;BME280;823;49.028;8.454;2023-05-11T06:11:01;100284.13;;;15.95;56.42
1652;BME280;823;49.028;8.454;2023-05-11T06:16:01;100281.94;;;16.18;55.93
1652;BME280;823;49.028;8.454;2023-05-11T06:21:02;100284.31;;;16.23;55.86
1652;BME280;823;49.028;8.454;2023-05-11T06:26:02;100277.34;;;16.07;56.05
1652;BME280;823;49.028;8.454;2023-05-11T06:31:03;100279.00;;;16.24;55.50
1652;BME280;823;49.028;8.454;2023-05-11T06:36:04;100277.13;;;16.26;55.75
1652;BME280;823;49.028;8.454;2023-05-11T06:41:05;100273.22;;;16.33;55.62
1652;BME280;823;49.028;8.454;2023-05-11T06:46:06;100277.91;;;16.43;55.58
1652;BME280;823;49.028;8.454;2023-05-11T06:51:10;100272.50;;;16.60;55.25
1652;BME280;823;49.028;8.454;2023-05-11T06:56:11;100282.28;;;16.42;55.25
1652;BME280;823;49.028;8.454;2023-05-11T07:01:11;100286.09;;;16.51;54.91
1652;BME280;823;49.028;8.454;2023-05-11T07:06:12;100287.66;;;16.39;54.93
1652;BME280;823;49.028;8.454;2023-05-11T07:11:12;100294.94;;;16.34;55.46
1652;BME280;823;49.028;8.454;2023-05-11T07:16:14;100290.16;;;16.26;56.05
1652;BME280;823;49.028;8.454;2023-05-11T07:21:14;100287.59;;;16.55;55.29
1652;BME280;823;49.028;8.454;2023-05-11T07:26:15;100301.78;;;16.65;55.25
1652;BME280;823;49.028;8.454;2023-05-11T07:31:15;100301.34;;;16.73;55.05
1652;BME280;823;49.028;8.454;2023-05-11T07:36:15;100296.09;;;16.88;54.78
1652;BME280;823;49.028;8.454;2023-05-11T07:41:16;100302.44;;;16.83;53.94
1652;BME280;823;49.028;8.454;2023-05-11T07:46:18;100304.78;;;16.88;53.36
1652;BME280;823;49.028;8.454;2023-05-11T07:51:18;100299.44;;;16.75;53.97
1652;BME280;823;49.028;8.454;2023-05-11T07:56:18;100311.16;;;16.98;53.34
1652;BME280;823;49.028;8.454;2023-05-11T08:01:19;100302.97;;;17.05;53.62
1652;BME280;823;49.028;8.454;2023-05-11T08:06:19;100299.88;;;16.98;53.60
1652;BME280;823;49.028;8.454;2023-05-11T08:11:19;100299.94;;;17.11;53.10
1652;BME280;823;49.028;8.454;2023-05-11T08:16:20;100302.75;;;17.08;52.98
1652;BME280;823;49.028;8.454;2023-05-11T08:21:20;100308.28;;;17.03;53.44
1652;BME280;823;49.028;8.454;2023-05-11T08:26:20;100302.88;;;17.06;53.54
1652;BME280;823;49.028;8.454;2023-05-11T08:31:21;100296.50;;;16.96;53.23
1652;BME280;823;49.028;8.454;2023-05-11T08:36:21;100315.63;;;17.25;52.54
1652;BME280;823;49.028;8.454;2023-05-11T08:41:22;100310.09;;;17.30;52.36
1652;BME280;823;49.028;8.454;2023-05-11T08:46:23;100305.19;;;17.52;51.60
1652;BME280;823;49.028;8.454;2023-05-11T08:51:27;100311.63;;;17.61;51.72
1652;BME280;823;49.028;8.454;2023-05-11T08:56:29;100314.16;;;17.63;51.04
1652;BME280;823;49.028;8.454;2023-05-11T09:01:30;100305.75;;;17.58;51.03
1652;BME280;823;49.028;8.454;2023-05-11T09:06:32;100304.41;;;17.65;51.63
1652;BME280;823;49.028;8.454;2023-05-11T09:11:33;100307.69;;;17.68;51.74
1652;BME280;823;49.028;8.454;2023-05-11T09:16:33;100310.53;;;17.78;51.18
1652;BME280;823;49.028;8.454;2023-05-11T09:21:34;100305.69;;;17.72;51.85
1652;BME280;823;49.028;8.454;2023-05-11T09:26:35;100306.19;;;17.64;51.81
1652;BME280;823;49.028;8.454;2023-05-11T09:31:42;100304.03;;;17.71;52.63
1652;BME280;823;49.028;8.454;2023-05-11T09:36:45;100302.94;;;17.88;51.83
1652;BME280;823;49.028;8.454;2023-05-11T09:41:45;100304.25;;;18.08;51.70
1652;BME280;823;49.028;8.454;2023-05-11T09:46:46;100303.75;;;18.03;51.07
1652;BME280;823;49.028;8.454;2023-05-11T09:51:46;100293.94;;;18.19;50.76
1652;BME280;823;49.028;8.454;2023-05-11T09:56:49;100292.16;;;18.20;51.22
1652;BME280;823;49.028;8.454;2023-05-11T10:01:49;100289.16;;;18.39;50.54
1652;BME280;823;49.028;8.454;2023-05-11T10:06:51;100293.75;;;18.23;49.72
1652;BME280;823;49.028;8.454;2023-05-11T10:11:55;100290.09;;;18.38;50.14
1652;BME280;823;49.028;8.454;2023-05-11T10:16:56;100291.78;;;18.39;50.35
1652;BME280;823;49.028;8.454;2023-05-11T10:21:58;100284.13;;;18.36;50.45
1652;BME280;823;49.028;8.454;2023-05-11T10:26:59;100284.84;;;18.51;49.57
1652;BME280;823;49.028;8.454;2023-05-11T10:32:01;100281.28;;;18.65;49.49
1652;BME280;823;49.028;8.454;2023-05-11T10:37:03;100278.66;;;18.65;49.16
1652;BME280;823;49.028;8.454;2023-05-11T10:53:30;100267.97;;;18.81;48.34
1652;BME280;823;49.028;8.454;2023-05-11T10:59:07;100268.59;;;19.10;47.96
1652;BME280;823;49.028;8.454;2023-05-11T11:04:12;100264.91;;;19.13;47.24
1652;BME280;823;49.028;8.454;2023-05-11T11:09:14;100271.28;;;19.21;47.33
1652;BME280;823;49.028;8.454;2023-05-11T11:14:17;100268.44;;;19.25;47.22
1652;BME280;823;49.028;8.454;2023-05-11T11:29:40;100255.34;;;19.25;46.56
1652;BME280;823;49.028;8.454;2023-05-11T11:34:40;100248.09;;;19.52;46.48
1652;BME280;823;49.028;8.454;2023-05-11T11:44:42;100243.56;;;19.79;45.48
1652;BME280;823;49.028;8.454;2023-05-11T11:49:45;100243.78;;;20.00;44.87
1652;BME280;823;49.028;8.454;2023-05-11T11:54:45;100243.91;;;20.10;44.79
1652;BME280;823;49.028;8.454;2023-05-11T11:59:46;100241.81;;;20.26;44.68
1652;BME280;823;49.028;8.454;2023-05-11T12:04:58;100248.09;;;20.12;44.48
1652;BME280;823;49.028;8.454;2023-05-11T12:10:02;100240.25;;;20.23;44.00
1652;BME280;823;49.028;8.454;2023-05-11T12:15:07;100238.69;;;20.21;42.89
1652;BME280;823;49.028;8.454;2023-05-11T12:20:15;100235.09;;;20.11;43.46
1652;BME280;823;49.028;8.454;2023-05-11T12:25:18;100227.34;;;20.20;44.38
1652;BME280;823;49.028;8.454;2023-05-11T12:30:22;100215.66;;;20.36;43.93
1652;BME280;823;49.028;8.454;2023-05-11T12:35:28;100211.47;;;20.56;44.23
1652;BME280;823;49.028;8.454;2023-05-11T12:40:29;100212.69;;;20.63;43.16
1652;BME280;823;49.028;8.454;2023-05-11T12:45:30;100207.19;;;20.66;42.96
1652;BME280;823;49.028;8.454;2023-05-11T12:50:30;100207.19;;;20.66;43.39
1652;BME280;823;49.028;8.454;2023-05-11T12:55:30;100206.25;;;20.79;41.71
1652;BME280;823;49.028;8.454;2023-05-11T13:00:31;100197.06;;;20.62;42.25
1652;BME280;823;49.028;8.454;2023-05-11T13:05:31;100192.50;;;20.64;42.93
1652;BME280;823;49.028;8.454;2023-05-11T13:10:32;100188.09;;;20.41;43.11
1652;BME280;823;49.028;8.454;2023-05-11T13:15:32;100176.63;;;20.54;41.76
1652;BME280;823;49.028;8.454;2023-05-11T13:20:33;100164.44;;;20.41;43.62
1652;BME280;823;49.028;8.454;2023-05-11T13:25:34;100168.03;;;20.74;42.33
1652;BME280;823;49.028;8.454;2023-05-11T13:30:56;100157.88;;;20.81;40.96
1652;BME280;823;49.028;8.454;2023-05-11T13:35:57;100158.00;;;20.68;41.46
1652;BME280;823;49.028;8.454;2023-05-11T13:40:57;100154.53;;;20.79;42.68
1652;BME280;823;49.028;8.454;2023-05-11T13:45:57;100148.31;;;20.80;41.64
1652;BME280;823;49.028;8.454;2023-05-11T13:50:58;100151.06;;;20.67;40.29
1652;BME280;823;49.028;8.454;2023-05-11T13:56:01;100144.22;;;20.87;40.89
1652;BME280;823;49.028;8.454;2023-05-11T14:01:01;100149.75;;;20.84;41.46
1652;BME280;823;49.028;8.454;2023-05-11T14:06:01;100141.94;;;20.94;40.70
1652;BME280;823;49.028;8.454;2023-05-11T14:11:02;100136.84;;;20.58;42.43
1652;BME280;823;49.028;8.454;2023-05-11T14:16:02;100136.59;;;20.84;42.28
1652;BME280;823;49.028;8.454;2023-05-11T14:21:03;100134.28;;;21.02;40.96
1652;BME280;823;49.028;8.454;2023-05-11T14:26:03;100131.78;;;21.01;39.62
1652;BME280;823;49.028;8.454;2023-05-11T14:31:04;100119.09;;;21.06;40.51
1652;BME280;823;49.028;8.454;2023-05-11T14:36:05;100125.34;;;20.94;40.32
1652;BME280;823;49.028;8.454;2023-05-11T14:41:07;100133.69;;;20.99;39.95
1652;BME280;823;49.028;8.454;2023-05-11T14:46:07;100124.09;;;21.09;40.22
1652;BME280;823;49.028;8.454;2023-05-11T14:51:08;100121.03;;;20.92;40.81
1652;BME280;823;49.028;8.454;2023-05-11T14:56:09;100110.41;;;20.94;40.03
1652;BME280;823;49.028;8.454;2023-05-11T15:01:09;100113.72;;;20.96;38.45
1652;BME280;823;49.028;8.454;2023-05-11T15:06:09;100114.38;;;20.88;39.15
1652;BME280;823;49.028;8.454;2023-05-11T15:11:10;100111.47;;;20.91;39.42
1652;BME280;823;49.028;8.454;2023-05-11T15:16:10;100108.81;;;20.70;37.96
1652;BME280;823;49.028;8.454;2023-05-11T15:21:11;100110.06;;;20.87;40.04
1652;BME280;823;49.028;8.454;2023-05-11T15:26:11;100108.50;;;20.85;40.36
1652;BME280;823;49.028;8.454;2023-05-11T15:31:13;100110.78;;;20.78;40.28
1652;BME280;823;49.028;8.454;2023-05-11T15:36:14;100119.16;;;20.83;39.74
1652;BME280;823;49.028;8.454;2023-05-11T15:41:14;100120.56;;;20.87;40.30
1652;BME280;823;49.028;8.454;2023-05-11T15:46:15;100112.81;;;20.86;39.27
1652;BME280;823;49.028;8.454;2023-05-11T15:51:15;100113.16;;;20.92;40.57
1652;BME280;823;49.028;8.454;2023-05-11T15:56:16;100108.72;;;20.93;40.00
1652;BME280;823;49.028;8.454;2023-05-11T16:01:16;100115.31;;;20.87;40.47
1652;BME280;823;49.028;8.454;2023-05-11T16:06:17;100109.81;;;20.90;40.33
1652;BME280;823;49.028;8.454;2023-05-11T16:11:18;100104.63;;;20.68;40.88
1652;BME280;823;49.028;8.454;2023-05-11T16:16:18;100105.78;;;20.75;39.78
1652;BME280;823;49.028;8.454;2023-05-11T16:21:19;100094.81;;;20.70;39.76
1652;BME280;823;49.028;8.454;2023-05-11T16:26:19;100101.09;;;20.90;40.26
1652;BME280;823;49.028;8.454;2023-05-11T16:31:20;100103.59;;;20.91;39.66
1652;BME280;823;49.028;8.454;2023-05-11T16:36:20;100096.75;;;20.68;40.16
1652;BME280;823;49.028;8.454;2023-05-11T16:41:21;100092.78;;;20.62;39.27
1652;BME280;823;49.028;8.454;2023-05-11T16:46:24;100090.75;;;20.66;40.18
1652;BME280;823;49.028;8.454;2023-05-11T16:51:24;100086.78;;;20.60;39.83
1652;BME280;823;49.028;8.454;2023-05-11T16:56:25;100088.63;;;20.48;40.28
1652;BME280;823;49.028;8.454;2023-05-11T17:01:25;100100.09;;;20.36;41.01
1652;BME280;823;49.028;8.454;2023-05-11T17:06:26;100097.84;;;20.31;41.27
1652;BME280;823;49.028;8.454;2023-05-11T17:11:26;100103.22;;;20.18;41.90
1652;BME280;823;49.028;8.454;2023-05-11T17:16:26;100093.53;;;20.30;40.90
1652;BME280;823;49.028;8.454;2023-05-11T17:21:27;100097.25;;;20.28;41.38
1652;BME280;823;49.028;8.454;2023-05-11T17:26:27;100104.88;;;20.19;41.92
1652;BME280;823;49.028;8.454;2023-05-11T17:31:28;100111.81;;;20.09;41.84
1652;BME280;823;49.028;8.454;2023-05-11T17:36:28;100113.00;;;20.05;42.95
1652;BME280;823;49.028;8.454;2023-05-11T17:41:29;100111.69;;;19.99;42.65
1652;BME280;823;49.028;8.454;2023-05-11T17:46:31;100110.25;;;19.95;42.90
1652;BME280;823;49.028;8.454;2023-05-11T17:51:31;100110.09;;;19.85;43.16
1652;BME280;823;49.028;8.454;2023-05-11T17:56:32;100113.19;;;19.79;43.97
1652;BME280;823;49.028;8.454;2023-05-11T18:01:32;100115.09;;;19.77;44.09
1652;BME280;823;49.028;8.454;2023-05-11T18:06:33;100121.28;;;19.65;44.20
1652;BME280;823;49.028;8.454;2023-05-11T18:11:34;100123.91;;;19.65;44.08
1652;BME280;823;49.028;8.454;2023-05-11T18:16:34;100127.09;;;19.57;43.71
1652;BME280;823;49.028;8.454;2023-05-11T18:21:35;100134.34;;;19.53;44.20
1652;BME280;823;49.028;8.454;2023-05-11T18:26:35;100135.94;;;19.32;45.45
1652;BME280;823;49.028;8.454;2023-05-11T18:31:36;100131.59;;;19.19;45.62
1652;BME280;823;49.028;8.454;2023-05-11T18:36:36;100136.06;;;19.06;46.27
1652;BME280;823;49.028;8.454;2023-05-11T18:41:37;100137.47;;;18.99;46.69
1652;BME280;823;49.028;8.454;2023-05-11T18:46:38;100145.75;;;18.93;47.33
1652;BME280;823;49.028;8.454;2023-05-11T18:51:38;100140.88;;;18.75;47.56
1652;BME280;823;49.028;8.454;2023-05-11T18:56:38;100147.91;;;18.62;47.65
1652;BME280;823;49.028;8.454;2023-05-11T19:01:39;100144.41;;;18.50;47.49
1652;BME280;823;49.028;8.454;2023-05-11T19:06:40;100150.38;;;18.39;48.21
1652;BME280;823;49.028;8.454;2023-05-11T19:11:41;100159.38;;;18.35;48.66
1652;BME280;823;49.028;8.454;2023-05-11T19:16:42;100162.03;;;18.22;49.00
1652;BME280;823;49.028;8.454;2023-05-11T19:21:42;100166.19;;;18.25;49.21
1652;BME280;823;49.028;8.454;2023-05-11T19:26:44;100175.31;;;18.19;49.79
1652;BME280;823;49.028;8.454;2023-05-11T19:31:44;100169.25;;;18.18;49.89
1652;BME280;823;49.028;8.454;2023-05-11T19:36:45;100169.75;;;18.11;50.29
1652;BME280;823;49.028;8.454;2023-05-11T19:41:45;100178.25;;;18.14;50.11
1652;BME280;823;49.028;8.454;2023-05-11T19:46:45;100174.47;;;18.06;50.36
1652;BME280;823;49.028;8.454;2023-05-11T19:51:46;100188.50;;;18.04;51.15
1652;BME280;823;49.028;8.454;2023-05-11T19:56:46;100195.50;;;17.91;52.43
1652;BME280;823;49.028;8.454;2023-05-11T20:01:47;100198.28;;;17.88;53.15
1652;BME280;823;49.028;8.454;2023-05-11T20:06:47;100193.56;;;17.80;53.86
1652;BME280;823;49.028;8.454;2023-05-11T20:11:48;100198.13;;;17.64;54.85
1652;BME280;823;49.028;8.454;2023-05-11T20:16:48;100204.41;;;17.61;55.54
1652;BME280;823;49.028;8.454;2023-05-11T20:21:48;100197.47;;;17.47;56.12
1652;BME280;823;49.028;8.454;2023-05-11T20:26:49;100199.19;;;17.34;56.77
1652;BME280;823;49.028;8.454;2023-05-11T20:31:49;100201.56;;;17.24;57.08
1652;BME280;823;49.028;8.454;2023-05-11T20:36:49;100207.06;;;17.19;57.54
1652;BME280;823;49.028;8.454;2023-05-11T20:41:53;100210.47;;;17.07;58.26
1652;BME280;823;49.028;8.454;2023-05-11T20:46:53;100206.75;;;16.97;58.34
1652;BME280;823;49.028;8.454;2023-05-11T20:51:54;100206.28;;;16.76;58.67
1652;BME280;823;49.028;8.454;2023-05-11T20:56:54;100206.59;;;16.42;60.09
1652;BME280;823;49.028;8.454;2023-05-11T21:01:55;100212.44;;;16.31;60.60
1652;BME280;823;49.028;8.454;2023-05-11T21:06:55;100205.44;;;16.17;61.86
1652;BME280;823;49.028;8.454;2023-05-11T21:11:55;100198.72;;;16.13;62.30
1652;BME280;823;49.028;8.454;2023-05-11T21:16:56;100199.06;;;16.07;63.28
1652;BME280;823;49.028;8.454;2023-05-11T21:21:56;100207.00;;;16.06;63.81
1652;BME280;823;49.028;8.454;2023-05-11T21:26:57;100201.97;;;16.03;63.77
1652;BME280;823;49.028;8.454;2023-05-11T21:31:58;100204.84;;;15.98;63.72
1652;BME280;823;49.028;8.454;2023-05-11T21:36:58;100205.78;;;15.97;64.11
1652;BME280;823;49.028;8.454;2023-05-11T21:41:59;100197.94;;;15.97;64.45
1652;BME280;823;49.028;8.454;2023-05-11T21:46:59;100210.22;;;15.95;64.70
1652;BME280;823;49.028;8.454;2023-05-11T21:52:00;100209.22;;;15.97;65.04
1652;BME280;823;49.028;8.454;2023-05-11T21:57:00;100200.75;;;15.94;65.29
1652;BME280;823;49.028;8.454;2023-05-11T22:02:00;100204.63;;;15.87;65.14
1652;BME280;823;49.028;8.454;2023-05-11T22:07:01;100201.75;;;15.91;65.30
1652;BME280;823;49.028;8.454;2023-05-11T22:12:02;100199.16;;;15.91;65.51
1652;BME280;823;49.028;8.454;2023-05-11T22:17:03;100203.25;;;15.95;65.75
1652;BME280;823;49.028;8.454;2023-05-11T22:22:03;100190.81;;;16.00;65.57
1652;BME280;823;49.028;8.454;2023-05-11T22:27:04;100194.97;;;16.03;65.50
1652;BME280;823;49.028;8.454;2023-05-11T22:32:05;100207.66;;;16.09;65.41
1652;BME280;823;49.028;8.454;2023-05-11T22:37:05;100197.81;;;16.14;65.14
1652;BME280;823;49.028;8.454;2023-05-11T22:42:05;100199.13;;;16.22;65.57
1652;BME280;823;49.028;8.454;2023-05-11T22:47:06;100203.41;;;16.23;65.34
1652;BME280;823;49.028;8.454;2023-05-11T22:52:06;100205.25;;;16.21;65.41
1652;BME280;823;49.028;8.454;2023-05-11T22:57:07;100196.22;;;16.12;65.33
1652;BME280;823;49.028;8.454;2023-05-11T23:02:07;100208.50;;;16.10;65.16
1652;BME280;823;49.028;8.454;2023-05-11T23:07:08;100205.88;;;16.10;65.36
1652;BME280;823;49.028;8.454;2023-05-11T23:12:11;100200.47;;;16.13;65.55
1652;BME280;823;49.028;8.454;2023-05-11T23:17:12;100208.78;;;16.20;65.63
1652;BME280;823;49.028;8.454;2023-05-11T23:22:12;100205.06;;;16.24;65.20
1652;BME280;823;49.028;8.454;2023-05-11T23:27:13;100215.50;;;16.24;65.18
1652;BME280;823;49.028;8.454;2023-05-11T23:32:13;100203.41;;;16.23;65.48
1652;BME280;823;49.028;8.454;2023-05-11T23:37:14;100199.03;;;16.23;65.58
1652;BME280;823;49.028;8.454;2023-05-11T23:42:15;100192.22;;;16.21;65.41
1652;BME280;823;49.028;8.454;2023-05-11T23:47:16;100192.22;;;16.21;65.52
1652;BME280;823;49.028;8.454;2023-05-11T23:52:16;100188.00;;;16.18;65.63
1652;BME280;823;49.028;8.454;2023-05-11T23:57:17;100181.47;;;16.11;65.48
